Time;durP1;ratioP1;P1;durP2;ratioP2;P2;SDS_P1;SDS_P2;PMS_P1;PMS_P2;Temp;Humidity;BMP_temperature;BMP_pressure;BME280_temperature;BME280_humidity;BME280_pressure;Samples;Min_cycle;Max_cycle;Signal;HPM_P1;HPM_P2
2022/05/16 00:01:26;;;;;;;9.80;9.50;;;14.70;99.90;;;;;;5118042;28;20741;-83
2022/05/16 00:04:02;;;;;;;10.13;9.82;;;14.60;99.90;;;;;;5116993;27;20232;-83
2022/05/16 00:06:31;;;;;;;9.90;9.60;;;14.60;99.90;;;;;;5117381;28;20753;-83
2022/05/16 00:09:01;;;;;;;10.10;9.80;;;14.50;99.90;;;;;;5116960;28;20298;-83
2022/05/16 00:11:30;;;;;;;10.00;9.70;;;14.50;99.90;;;;;;5116957;28;20233;-83
2022/05/16 00:14:00;;;;;;;9.95;9.65;;;14.40;99.90;;;;;;5117433;28;20232;-83
2022/05/16 00:16:30;;;;;;;10.00;9.70;;;14.40;99.90;;;;;;5116975;28;20282;-83
2022/05/16 00:19:08;;;;;;;10.13;9.82;;;14.40;99.90;;;;;;5117550;27;20232;-83
2022/05/16 00:21:38;;;;;;;10.38;10.07;;;14.40;99.90;;;;;;5117036;28;20239;-83
2022/05/16 00:24:06;;;;;;;10.10;9.80;;;14.30;99.90;;;;;;5117133;28;20225;-83
2022/05/16 00:26:36;;;;;;;10.20;9.90;;;14.30;99.90;;;;;;5117381;28;20232;-83
2022/05/16 00:29:05;;;;;;;10.02;9.73;;;14.20;99.90;;;;;;5117468;28;20331;-83
2022/05/16 00:31:34;;;;;;;10.00;9.70;;;14.20;99.90;;;;;;5117004;28;20221;-83
2022/05/16 00:34:13;;;;;;;9.90;9.60;;;14.10;99.90;;;;;;5117419;28;20233;-83
2022/05/16 00:36:42;;;;;;;9.90;9.60;;;14.10;99.90;;;;;;5121074;27;20660;-82
2022/05/16 00:39:12;;;;;;;9.70;9.40;;;14.00;99.90;;;;;;5121423;27;20276;-83
2022/05/16 00:41:41;;;;;;;9.90;9.60;;;13.90;99.90;;;;;;5125407;27;20241;-82
2022/05/16 00:44:10;;;;;;;9.83;9.53;;;13.90;99.90;;;;;;5125894;28;20231;-83
2022/05/16 00:46:40;;;;;;;10.10;9.80;;;13.90;99.90;;;;;;5124665;28;20233;-85
2022/05/16 00:49:27;;;;;;;10.00;9.70;;;13.90;99.90;;;;;;5123715;27;20229;-82
2022/05/16 00:52:06;;;;;;;10.27;9.97;;;13.80;99.90;;;;;;5120861;27;20221;-83
2022/05/16 00:57:31;;;;;;;10.27;9.97;;;13.80;99.90;;;;;;5119410;27;20704;-83
2022/05/16 01:05:45;;;;;;;10.40;10.10;;;13.60;99.90;;;;;;5120931;28;20232;-83
2022/05/16 01:08:23;;;;;;;10.37;10.07;;;13.60;99.90;;;;;;5120649;27;20251;-83
2022/05/16 01:10:52;;;;;;;10.07;9.77;;;13.60;99.90;;;;;;5121002;27;20234;-83
2022/05/16 01:13:21;;;;;;;10.10;9.80;;;13.60;99.90;;;;;;5121168;27;20297;-82
2022/05/16 01:15:50;;;;;;;10.30;10.00;;;13.60;99.90;;;;;;5121373;28;20228;-83
2022/05/16 01:18:21;;;;;;;10.20;9.90;;;13.50;99.90;;;;;;5120114;27;20245;-83
2022/05/16 01:21:06;;;;;;;10.07;9.77;;;13.50;99.90;;;;;;5120571;28;20286;-83
2022/05/16 01:23:44;;;;;;;10.00;9.70;;;13.50;99.90;;;;;;5119630;28;20221;-83
2022/05/16 01:26:17;;;;;;;10.17;9.87;;;13.50;99.90;;;;;;5120080;27;20299;-83
2022/05/16 01:28:45;;;;;;;10.30;10.00;;;13.40;99.90;;;;;;5120502;27;20233;-82
2022/05/16 01:31:13;;;;;;;10.47;10.17;;;13.40;99.90;;;;;;5123305;27;20236;-83
2022/05/16 01:33:42;;;;;;;10.40;10.10;;;13.30;99.90;;;;;;5123854;28;20255;-83
2022/05/16 01:36:11;;;;;;;10.37;10.07;;;13.30;99.90;;;;;;5123004;28;20213;-82
2022/05/16 01:39:00;;;;;;;10.40;10.10;;;13.20;99.90;;;;;;5122876;27;20233;-83
2022/05/16 01:44:02;;;;;;;10.23;9.93;;;13.10;99.90;;;;;;5104336;28;20256;-79
2022/05/16 01:46:34;;;;;;;10.70;10.40;;;13.00;99.90;;;;;;5104792;28;20701;-79
2022/05/16 01:49:03;;;;;;;10.80;10.50;;;12.80;99.90;;;;;;5105717;28;20237;-79
2022/05/16 01:51:30;;;;;;;10.60;10.30;;;12.70;99.90;;;;;;5106969;28;20230;-79
2022/05/16 01:54:01;;;;;;;10.80;10.50;;;12.70;99.90;;;;;;5125805;28;20271;-78
2022/05/16 01:56:28;;;;;;;10.70;10.40;;;12.70;99.90;;;;;;5125718;28;20228;-79
2022/05/16 01:58:56;;;;;;;10.70;10.40;;;12.70;99.90;;;;;;5126465;28;20232;-79
2022/05/16 02:01:23;;;;;;;10.50;10.20;;;12.70;99.90;;;;;;5126884;27;20232;-79
2022/05/16 02:03:56;;;;;;;10.60;10.30;;;12.70;99.90;;;;;;5125858;28;20225;-79
2022/05/16 02:06:25;;;;;;;10.60;10.30;;;12.60;99.90;;;;;;5124651;28;20212;-79
2022/05/16 02:08:54;;;;;;;10.50;10.20;;;12.60;99.90;;;;;;5125676;28;20232;-79
2022/05/16 02:11:26;;;;;;;10.40;10.10;;;12.60;99.90;;;;;;5127784;28;20264;-79
2022/05/16 02:13:53;;;;;;;10.40;10.10;;;12.60;99.90;;;;;;5126131;28;20225;-79
2022/05/16 02:16:22;;;;;;;10.43;10.13;;;12.60;99.90;;;;;;5125963;28;20229;-79
2022/05/16 02:18:51;;;;;;;10.20;9.90;;;12.60;99.90;;;;;;5128276;28;20229;-79
2022/05/16 02:26:59;;;;;;;10.33;10.03;;;12.70;99.90;;;;;;5096113;27;20213;-80
2022/05/16 02:29:26;;;;;;;10.70;10.40;;;12.70;99.90;;;;;;5130242;28;20251;-80
2022/05/16 02:31:54;;;;;;;10.50;10.20;;;12.70;99.90;;;;;;5129897;28;20240;-79
2022/05/16 02:34:22;;;;;;;10.27;9.97;;;12.70;99.90;;;;;;5129437;28;20634;-79
2022/05/16 02:36:50;;;;;;;10.40;10.10;;;12.60;99.90;;;;;;5130353;28;20217;-79
2022/05/16 02:39:22;;;;;;;10.17;9.87;;;12.60;99.90;;;;;;5129758;28;20311;-80
2022/05/16 02:41:52;;;;;;;10.17;9.87;;;12.60;99.90;;;;;;5128914;28;20237;-79
2022/05/16 02:44:24;;;;;;;10.33;10.03;;;12.50;99.90;;;;;;5128351;27;20213;-80
2022/05/16 02:46:52;;;;;;;10.13;9.83;;;12.50;99.90;;;;;;5127732;27;20224;-80
2022/05/16 02:49:21;;;;;;;10.47;10.17;;;12.50;99.90;;;;;;5127992;28;20229;-79
2022/05/16 02:51:49;;;;;;;10.53;10.23;;;12.40;99.90;;;;;;5127886;28;20225;-80
2022/05/16 02:54:19;;;;;;;10.33;10.03;;;12.40;99.90;;;;;;5128043;28;20246;-79
2022/05/16 02:56:48;;;;;;;10.23;9.93;;;12.40;99.90;;;;;;5127467;28;20235;-79
2022/05/16 02:59:17;;;;;;;10.27;9.97;;;12.30;99.90;;;;;;5126729;28;20228;-79
2022/05/16 03:01:57;;;;;;;10.47;10.17;;;12.30;99.90;;;;;;5127271;28;20240;-79
2022/05/16 03:04:25;;;;;;;10.50;10.20;;;12.30;99.90;;;;;;5133074;28;20251;-79
2022/05/16 03:06:54;;;;;;;10.73;10.43;;;12.20;99.90;;;;;;5138139;28;20209;-79
2022/05/16 03:09:24;;;;;;;10.60;10.30;;;12.20;99.90;;;;;;5136314;28;20239;-79
2022/05/16 03:11:54;;;;;;;10.40;10.10;;;12.20;99.90;;;;;;5130807;28;20302;-79
2022/05/16 03:14:23;;;;;;;10.30;10.00;;;12.20;99.90;;;;;;5129619;28;20286;-80
2022/05/16 03:17:02;;;;;;;10.60;10.30;;;12.20;99.90;;;;;;5129052;28;20228;-80
2022/05/16 03:19:31;;;;;;;10.60;10.30;;;12.20;99.90;;;;;;5128548;28;20233;-80
2022/05/16 03:21:59;;;;;;;10.53;10.23;;;12.20;99.90;;;;;;5126953;28;20244;-79
2022/05/16 03:24:29;;;;;;;10.83;10.53;;;12.20;99.90;;;;;;5132681;28;20247;-79
2022/05/16 03:26:58;;;;;;;10.77;10.47;;;12.20;99.90;;;;;;5133705;28;20217;-79
2022/05/16 03:29:28;;;;;;;10.47;10.17;;;12.20;99.90;;;;;;5132816;28;20233;-79
2022/05/16 03:32:07;;;;;;;10.53;10.23;;;12.20;99.90;;;;;;5129118;27;20236;-80
2022/05/16 03:34:36;;;;;;;10.60;10.30;;;12.30;99.90;;;;;;5130049;28;20233;-80
2022/05/16 03:37:06;;;;;;;10.60;10.30;;;12.30;99.90;;;;;;5128831;28;20236;-79
2022/05/16 03:42:18;;;;;;;10.50;10.20;;;12.20;99.90;;;;;;5126378;28;20236;-79
2022/05/16 03:44:46;;;;;;;10.50;10.20;;;12.20;99.90;;;;;;5126572;28;20255;-79
2022/05/16 03:47:16;;;;;;;10.50;10.20;;;12.20;99.90;;;;;;5126005;28;20247;-79
2022/05/16 03:49:44;;;;;;;10.80;10.50;;;12.20;99.90;;;;;;5126308;28;20761;-79
2022/05/16 03:52:13;;;;;;;10.90;10.60;;;12.20;99.90;;;;;;5125320;28;20236;-79
2022/05/16 03:54:42;;;;;;;10.63;10.33;;;12.20;99.90;;;;;;5126032;28;20235;-79
2022/05/16 03:57:11;;;;;;;10.37;10.07;;;12.30;99.90;;;;;;5125086;28;20613;-79
2022/05/16 03:59:41;;;;;;;10.50;10.20;;;12.30;99.90;;;;;;5124926;27;20228;-79
2022/05/16 04:02:10;;;;;;;10.40;10.10;;;12.30;99.90;;;;;;5124050;28;20232;-79
2022/05/16 04:04:49;;;;;;;10.70;10.40;;;12.30;99.90;;;;;;5123724;28;21099;-79
2022/05/16 04:07:19;;;;;;;10.67;10.37;;;12.30;99.90;;;;;;5124170;28;20213;-80
2022/05/16 04:09:48;;;;;;;10.80;10.50;;;12.20;99.90;;;;;;5126416;27;20255;-79
2022/05/16 04:12:18;;;;;;;11.00;10.70;;;12.20;99.90;;;;;;5128815;28;20232;-79
2022/05/16 04:14:47;;;;;;;10.63;10.33;;;12.20;99.90;;;;;;5127575;28;20286;-79
2022/05/16 04:17:16;;;;;;;11.40;11.10;;;12.10;99.90;;;;;;5128151;28;20225;-79
2022/05/16 04:19:48;;;;;;;10.97;10.67;;;12.10;99.90;;;;;;5128864;28;20228;-79
2022/05/16 04:22:15;;;;;;;10.93;10.63;;;12.10;99.90;;;;;;5128816;28;20233;-80
2022/05/16 04:24:45;;;;;;;10.60;10.30;;;12.10;99.90;;;;;;5129058;28;20251;-79
2022/05/16 04:27:13;;;;;;;10.57;10.27;;;12.10;99.90;;;;;;5129138;28;20232;-78
2022/05/16 04:29:43;;;;;;;10.27;9.97;;;12.20;99.90;;;;;;5130065;28;20233;-79
2022/05/16 04:32:12;;;;;;;10.30;10.00;;;12.30;99.90;;;;;;5131683;28;20259;-80
2022/05/16 04:34:43;;;;;;;9.90;9.60;;;12.40;99.90;;;;;;5132883;28;20216;-79
2022/05/16 04:37:14;;;;;;;10.20;9.90;;;12.50;99.90;;;;;;5131710;27;20244;-79
2022/05/16 04:39:42;;;;;;;9.97;9.67;;;12.70;99.90;;;;;;5130512;27;20236;-79
2022/05/16 04:44:58;;;;;;;10.10;9.80;;;12.90;99.90;;;;;;5128464;28;20272;-79
2022/05/16 04:47:27;;;;;;;10.30;10.00;;;13.00;99.90;;;;;;5128420;28;20228;-79
2022/05/16 04:49:56;;;;;;;9.93;9.63;;;13.20;99.90;;;;;;5128985;28;20229;-79
2022/05/16 04:52:34;;;;;;;10.00;9.70;;;13.30;99.90;;;;;;5128437;28;20232;-79
2022/05/16 04:55:03;;;;;;;10.00;9.70;;;13.50;99.90;;;;;;5128113;28;20228;-79
2022/05/16 04:57:33;;;;;;;10.10;9.80;;;13.60;99.90;;;;;;5129161;28;20277;-79
2022/05/16 05:00:02;;;;;;;10.60;10.30;;;13.80;99.90;;;;;;5128710;27;20233;-79
2022/05/16 05:02:32;;;;;;;10.30;10.00;;;14.00;99.90;;;;;;5129567;28;20263;-79
2022/05/16 05:05:03;;;;;;;10.30;10.00;;;14.20;99.90;;;;;;5128048;27;20232;-80
2022/05/16 05:07:33;;;;;;;10.02;9.73;;;14.40;99.90;;;;;;5128339;28;20225;-80
2022/05/16 05:15:35;;;;;;;10.25;9.95;;;14.70;99.90;;;;;;5129531;28;20216;-79
2022/05/16 05:18:04;;;;;;;10.13;9.82;;;14.80;99.90;;;;;;5128903;28;20284;-79
2022/05/16 05:20:33;;;;;;;10.18;9.88;;;14.90;99.90;;;;;;5127315;28;20232;-80
2022/05/16 05:23:12;;;;;;;10.10;9.80;;;14.90;99.90;;;;;;5127169;28;20237;-79
2022/05/16 05:25:41;;;;;;;10.20;9.90;;;15.00;99.90;;;;;;5127475;27;20237;-80
2022/05/16 05:28:10;;;;;;;10.32;10.02;;;15.10;99.90;;;;;;5127709;28;20224;-79
2022/05/16 05:30:40;;;;;;;10.05;9.75;;;15.10;99.90;;;;;;5127632;28;20267;-79
2022/05/16 05:33:09;;;;;;;10.07;9.77;;;15.20;99.90;;;;;;5126858;28;20229;-80
2022/05/16 05:35:39;;;;;;;10.10;9.80;;;15.30;99.90;;;;;;5128652;28;20224;-80
2022/05/16 05:38:13;;;;;;;10.05;9.75;;;15.40;99.90;;;;;;5127261;28;20232;-79
2022/05/16 05:40:41;;;;;;;9.90;9.60;;;15.40;99.90;;;;;;5127675;28;20947;-80
2022/05/16 05:43:09;;;;;;;10.02;9.73;;;15.50;99.90;;;;;;5126400;28;20247;-80
2022/05/16 05:45:39;;;;;;;9.77;9.48;;;15.70;99.90;;;;;;5127206;28;20335;-80
2022/05/16 05:48:08;;;;;;;9.82;9.52;;;15.70;99.90;;;;;;5135473;28;20213;-79
2022/05/16 05:50:37;;;;;;;10.10;9.80;;;15.80;99.90;;;;;;5138614;27;20237;-79
2022/05/16 05:53:08;;;;;;;10.07;9.77;;;15.90;99.90;;;;;;5137815;28;20258;-80
2022/05/16 05:55:36;;;;;;;10.18;9.88;;;15.90;99.90;;;;;;5137311;28;20251;-79
2022/05/16 05:58:05;;;;;;;10.25;9.95;;;16.00;99.90;;;;;;5131379;28;20225;-80
2022/05/16 06:00:35;;;;;;;10.38;10.07;;;16.20;99.90;;;;;;5130676;28;20229;-80
2022/05/16 06:03:04;;;;;;;10.45;10.15;;;16.30;99.90;;;;;;5129250;28;20237;-79
2022/05/16 06:05:34;;;;;;;10.68;10.38;;;16.40;99.90;;;;;;5128971;28;20239;-80
2022/05/16 06:08:03;;;;;;;10.70;10.40;;;16.50;99.90;;;;;;5129099;28;20224;-79
2022/05/16 06:10:41;;;;;;;10.80;10.50;;;16.60;99.90;;;;;;5127991;28;20255;-80
2022/05/16 06:13:11;;;;;;;10.60;10.30;;;16.80;99.90;;;;;;5127753;28;20294;-79
2022/05/16 06:15:40;;;;;;;10.68;10.38;;;16.90;99.90;;;;;;5131899;28;20247;-79
2022/05/16 06:18:09;;;;;;;10.60;10.30;;;17.00;99.90;;;;;;5137792;28;20216;-79
2022/05/16 06:20:39;;;;;;;10.77;10.48;;;17.10;99.90;;;;;;5137024;28;20233;-80
2022/05/16 06:23:08;;;;;;;10.35;10.05;;;17.30;99.90;;;;;;5138238;28;20235;-79
2022/05/16 06:25:48;;;;;;;10.68;10.38;;;17.40;99.90;;;;;;5134398;28;20225;-79
2022/05/16 06:28:25;;;;;;;10.45;10.15;;;17.50;99.90;;;;;;5129451;28;20243;-79
2022/05/16 06:30:56;;;;;;;10.63;10.32;;;17.50;99.90;;;;;;5128842;28;20250;-79
2022/05/16 06:33:28;;;;;;;10.45;10.15;;;17.60;99.90;;;;;;5128057;28;20236;-79
2022/05/16 06:35:56;;;;;;;10.38;10.07;;;17.70;99.90;;;;;;5128018;27;20220;-79
2022/05/16 06:38:31;;;;;;;10.38;10.07;;;17.70;99.90;;;;;;5127096;28;20213;-81
2022/05/16 06:41:09;;;;;;;10.70;10.40;;;17.70;99.90;;;;;;5127935;27;20229;-79
2022/05/16 06:43:39;;;;;;;10.48;10.18;;;17.70;99.90;;;;;;5127109;28;20240;-79
2022/05/16 06:46:08;;;;;;;10.60;10.30;;;17.70;99.90;;;;;;5127092;28;20225;-82
2022/05/16 06:48:38;;;;;;;10.70;10.40;;;17.80;99.90;;;;;;5126929;28;20229;-79
2022/05/16 06:51:07;;;;;;;10.82;10.52;;;17.80;99.90;;;;;;5127148;28;20221;-79
2022/05/16 06:53:37;;;;;;;10.77;10.48;;;17.90;99.90;;;;;;5127300;28;20233;-80
2022/05/16 06:56:15;;;;;;;10.90;10.60;;;18.00;99.90;;;;;;5126267;28;20302;-80
2022/05/16 06:58:44;;;;;;;10.70;10.40;;;18.20;99.90;;;;;;5125994;28;20221;-80
2022/05/16 07:01:14;;;;;;;10.35;10.05;;;18.40;99.90;;;;;;5126449;28;20234;-79
2022/05/16 07:03:43;;;;;;;10.50;10.20;;;18.50;99.90;;;;;;5125889;28;20224;-80
2022/05/16 07:06:14;;;;;;;10.23;9.93;;;18.60;99.90;;;;;;5126498;28;20220;-80
2022/05/16 07:08:43;;;;;;;10.00;9.70;;;18.80;99.90;;;;;;5125867;27;20233;-79
2022/05/16 07:11:14;;;;;;;10.30;10.00;;;18.90;99.90;;;;;;5126224;28;20310;-80
2022/05/16 07:13:42;;;;;;;10.35;10.05;;;19.00;99.90;;;;;;5126828;28;20233;-80
2022/05/16 07:16:11;;;;;;;10.30;10.00;;;19.10;99.90;;;;;;5126795;28;20318;-80
2022/05/16 07:18:40;;;;;;;10.32;10.02;;;19.20;99.90;;;;;;5127338;28;20212;-79
2022/05/16 07:21:09;;;;;;;10.15;9.85;;;19.20;99.90;;;;;;5126838;28;20290;-80
2022/05/16 07:23:40;;;;;;;10.43;10.13;;;19.20;99.90;;;;;;5134277;28;20236;-79
2022/05/16 07:31:43;;;;;;;10.48;10.18;;;19.50;99.90;;;;;;5130858;28;20229;-80
2022/05/16 07:34:12;;;;;;;10.75;10.45;;;19.70;99.90;;;;;;5129322;28;20232;-80
2022/05/16 07:36:41;;;;;;;10.80;10.50;;;19.80;99.90;;;;;;5128996;27;20221;-80
2022/05/16 07:39:15;;;;;;;11.00;10.70;;;20.00;99.90;;;;;;5127506;28;20224;-80
2022/05/16 07:41:43;;;;;;;11.13;10.82;;;20.20;99.90;;;;;;5126034;28;20240;-80
2022/05/16 07:44:13;;;;;;;11.00;10.70;;;20.30;99.90;;;;;;5131911;22;20233;-82
2022/05/16 07:46:41;;;;;;;10.73;10.43;;;20.50;99.90;;;;;;5107275;28;20232;-82
2022/05/16 07:49:10;;;;;;;10.80;10.50;;;20.60;99.90;;;;;;5106365;28;20214;-82
2022/05/16 07:51:41;;;;;;;10.68;10.38;;;20.70;99.90;;;;;;5105191;28;20233;-83
2022/05/16 07:54:09;;;;;;;10.60;10.30;;;20.80;99.90;;;;;;5104147;28;20239;-83
2022/05/16 07:56:40;;;;;;;10.85;10.55;;;20.90;99.90;;;;;;5104721;28;20245;-82
2022/05/16 07:59:09;;;;;;;11.10;10.80;;;21.10;99.90;;;;;;5104054;28;21102;-82
2022/05/16 08:01:47;;;;;;;10.88;10.57;;;21.20;99.90;;;;;;5103937;28;20297;-82
2022/05/16 08:04:16;;;;;;;10.88;10.57;;;21.40;99.90;;;;;;5103990;28;20244;-81
2022/05/16 08:06:45;;;;;;;11.27;10.98;;;21.50;99.90;;;;;;5102708;28;20253;-82
2022/05/16 08:12:02;;;;;;;10.80;10.50;;;21.50;99.90;;;;;;5107388;28;20279;-82
2022/05/16 08:14:31;;;;;;;10.80;10.50;;;21.50;99.90;;;;;;5106645;28;20237;-82
2022/05/16 08:17:02;;;;;;;11.00;10.70;;;21.60;99.90;;;;;;5106353;28;20249;-82
2022/05/16 08:19:33;;;;;;;11.18;10.88;;;21.70;99.90;;;;;;5105800;28;20225;-82
2022/05/16 08:22:01;;;;;;;11.35;11.05;;;21.90;99.90;;;;;;5103592;28;20237;-82
2022/05/16 08:24:29;;;;;;;11.02;10.73;;;22.00;99.90;;;;;;5103732;28;20241;-82
2022/05/16 08:27:00;;;;;;;11.40;11.05;;;22.20;99.90;;;;;;5103709;28;20260;-82
2022/05/16 08:29:30;;;;;;;11.25;10.95;;;22.30;99.90;;;;;;5103320;28;20228;-82
2022/05/16 08:31:59;;;;;;;11.20;10.90;;;22.30;99.90;;;;;;5103371;28;20233;-82
2022/05/16 08:34:27;;;;;;;11.10;10.80;;;22.40;99.90;;;;;;5103782;28;20252;-82
2022/05/16 08:40:03;;;;;;;11.25;10.95;;;22.50;99.90;;;;;;5103172;28;20218;-82
2022/05/16 08:42:49;;;;;;;11.75;11.35;;;22.40;99.90;;;;;;5104310;28;20241;-82
2022/05/16 08:45:19;;;;;;;11.20;10.90;;;22.40;99.90;;;;;;5109679;28;20310;-83
2022/05/16 08:47:55;;;;;;;10.90;10.60;;;22.60;99.90;;;;;;5109156;28;20218;-81
2022/05/16 08:50:36;;;;;;;11.13;10.82;;;22.60;99.90;;;;;;5117061;28;20261;-82
2022/05/16 08:53:12;;;;;;;11.27;10.98;;;22.70;99.90;;;;;;5116873;28;20237;-82
2022/05/16 08:55:42;;;;;;;10.90;10.60;;;22.80;99.90;;;;;;5104332;28;20229;-82
2022/05/16 08:58:19;;;;;;;10.80;10.50;;;22.70;99.90;;;;;;5103521;28;20266;-82
2022/05/16 09:00:51;;;;;;;11.00;10.70;;;22.70;99.90;;;;;;5120084;27;20209;-81
2022/05/16 09:03:27;;;;;;;11.00;10.70;;;22.60;99.90;;;;;;5121125;27;20268;-81
2022/05/16 09:06:05;;;;;;;10.70;10.40;;;22.60;99.90;;;;;;5118655;28;20302;-82
2022/05/16 09:08:53;;;;;;;10.75;10.45;;;22.50;99.90;;;;;;5108182;28;20317;-83
2022/05/16 09:11:33;;;;;;;10.70;10.40;;;22.40;99.90;;;;;;5102742;28;20225;-82
2022/05/16 09:14:09;;;;;;;10.80;10.50;;;22.30;99.90;;;;;;5103134;28;20236;-82
2022/05/16 09:16:48;;;;;;;11.10;10.80;;;22.20;99.90;;;;;;5102510;28;20232;-82
2022/05/16 09:19:44;;;;;;;10.98;10.68;;;22.00;99.90;;;;;;5106947;28;20244;-83
2022/05/16 09:22:20;;;;;;;10.73;10.43;;;21.50;99.90;;;;;;5106053;28;20225;-82
2022/05/16 09:24:52;;;;;;;10.50;10.20;;;21.10;99.90;;;;;;5111159;28;20236;-81
2022/05/16 09:30:29;;;;;;;10.48;10.18;;;20.60;99.90;;;;;;5040024;28;20255;-81
2022/05/16 09:33:12;;;;;;;10.23;9.93;;;20.40;99.90;;;;;;5090378;28;20237;-80
2022/05/16 09:35:54;;;;;;;10.23;9.93;;;20.20;99.90;;;;;;5101993;28;20226;-81
2022/05/16 09:38:22;;;;;;;10.13;9.82;;;19.90;99.90;;;;;;5102134;28;20252;-80
2022/05/16 09:41:08;;;;;;;10.32;10.02;;;19.80;99.90;;;;;;5102096;28;20324;-81
2022/05/16 09:43:49;;;;;;;10.30;10.00;;;19.80;99.90;;;;;;5100376;28;20924;-81
2022/05/16 09:46:32;;;;;;;10.45;10.15;;;19.70;99.90;;;;;;5101076;28;20226;-81
2022/05/16 09:49:15;;;;;;;10.48;10.18;;;19.70;99.90;;;;;;5102560;28;20347;-81
2022/05/16 09:52:16;;;;;;;10.30;10.00;;;19.60;99.90;;;;;;5105617;28;20225;-81
2022/05/16 09:54:46;;;;;;;10.30;10.00;;;19.60;99.90;;;;;;5104545;28;20209;-81
2022/05/16 09:57:22;;;;;;;10.65;10.35;;;19.60;99.90;;;;;;5105204;28;20248;-80
2022/05/16 09:59:54;;;;;;;10.63;10.32;;;19.70;99.90;;;;;;5103805;28;20233;-80
2022/05/16 10:02:32;;;;;;;10.80;10.50;;;19.70;99.90;;;;;;5101761;28;20229;-81
2022/05/16 10:05:03;;;;;;;10.50;10.20;;;19.80;99.90;;;;;;5100947;28;20248;-80
2022/05/16 10:07:44;;;;;;;10.63;10.32;;;19.80;99.90;;;;;;5100795;28;20229;-81
2022/05/16 10:10:19;;;;;;;10.50;10.20;;;19.80;99.90;;;;;;5102433;28;20253;-81
2022/05/16 10:12:48;;;;;;;10.18;9.88;;;19.80;99.90;;;;;;5101590;28;20225;-81
2022/05/16 10:15:17;;;;;;;10.35;10.05;;;19.80;99.90;;;;;;5101885;28;20225;-81
2022/05/16 10:17:47;;;;;;;10.40;10.10;;;19.70;99.90;;;;;;5101738;28;20323;-81
2022/05/16 10:20:24;;;;;;;10.32;10.02;;;19.70;99.90;;;;;;5104457;28;20243;-80
2022/05/16 10:23:03;;;;;;;10.48;10.18;;;19.80;99.90;;;;;;5111173;28;20294;-81
2022/05/16 10:25:40;;;;;;;9.70;9.40;;;19.80;99.90;;;;;;5110643;28;20214;-80
2022/05/16 10:28:13;;;;;;;9.77;9.48;;;19.90;99.90;;;;;;5108402;28;20237;-81
2022/05/16 10:33:38;;;;;;;10.07;9.77;;;20.40;99.90;;;;;;5104891;28;20318;-81
2022/05/16 10:36:14;;;;;;;9.82;9.52;;;20.80;99.90;;;;;;5104300;28;20225;-81
2022/05/16 10:38:54;;;;;;;9.82;9.52;;;21.30;99.90;;;;;;5104513;28;20259;-81
2022/05/16 10:41:30;;;;;;;9.80;9.50;;;21.80;99.90;;;;;;5104448;28;20282;-81
2022/05/16 10:44:09;;;;;;;10.52;10.23;;;22.40;99.90;;;;;;5103417;28;20225;-81
2022/05/16 10:46:48;;;;;;;10.90;10.60;;;22.70;99.90;;;;;;5103223;28;20213;-81
2022/05/16 10:49:27;;;;;;;10.75;10.45;;;23.10;99.90;;;;;;5103435;28;20328;-82
2022/05/16 10:52:04;;;;;;;10.77;10.48;;;23.20;99.90;;;;;;5109374;28;20320;-81
2022/05/16 10:54:35;;;;;;;10.38;10.07;;;23.20;99.90;;;;;;5107992;28;20225;-81
2022/05/16 10:57:21;;;;;;;10.73;10.43;;;23.10;99.90;;;;;;5107767;28;20271;-81
2022/05/16 11:04:03;;;;;;;10.30;10.00;;;23.10;99.90;;;;;;5102009;28;20229;-81
2022/05/16 11:07:02;;;;;;;10.60;10.30;;;23.40;99.90;;;;;;5108148;28;20222;-81
2022/05/16 11:09:46;;;;;;;10.50;10.20;;;23.50;99.90;;;;;;5107673;28;20229;-81
2022/05/16 11:12:27;;;;;;;10.40;10.10;;;23.40;99.90;;;;;;5105797;28;20225;-81
2022/05/16 11:15:14;;;;;;;10.43;10.13;;;23.40;99.90;;;;;;5103208;28;20229;-81
2022/05/16 11:17:53;;;;;;;10.32;10.02;;;23.40;99.90;;;;;;5102735;28;20222;-81
2022/05/16 11:20:29;;;;;;;10.70;10.40;;;23.40;99.90;;;;;;5101118;28;20247;-81
2022/05/16 11:23:05;;;;;;;10.98;10.68;;;23.50;99.90;;;;;;5101882;28;20283;-81
2022/05/16 11:25:54;;;;;;;11.10;10.80;;;23.50;99.90;;;;;;5101240;28;20261;-81
2022/05/16 11:28:33;;;;;;;10.80;10.50;;;23.80;99.90;;;;;;5103290;28;20221;-81
2022/05/16 11:31:10;;;;;;;10.38;10.07;;;24.00;99.90;;;;;;5104383;28;20220;-81
2022/05/16 11:33:48;;;;;;;10.50;10.20;;;24.30;99.90;;;;;;5106003;28;20232;-82
2022/05/16 11:36:26;;;;;;;10.70;10.40;;;24.70;99.90;;;;;;5105530;28;20708;-82
2022/05/16 11:39:09;;;;;;;10.20;9.90;;;25.20;99.90;;;;;;5107102;28;20232;-83
2022/05/16 11:41:55;;;;;;;10.30;10.00;;;25.60;99.90;;;;;;5118892;27;20270;-82
2022/05/16 11:44:32;;;;;;;10.27;9.98;;;25.80;99.90;;;;;;5119543;27;20233;-82
2022/05/16 11:47:11;;;;;;;10.80;10.50;;;25.80;99.90;;;;;;5120358;27;20216;-82
2022/05/16 11:49:57;;;;;;;11.00;10.70;;;25.90;99.90;;;;;;5119771;27;20229;-82
2022/05/16 11:52:36;;;;;;;10.93;10.63;;;25.90;99.90;;;;;;5119748;27;20212;-82
2022/05/16 12:00:31;;;;;;;10.90;10.60;;;25.60;99.90;;;;;;5119396;27;20240;-82
2022/05/16 12:00:58;;;;;;;10.30;10.00;;;25.30;99.90;;;;;;5098929;28;20217;-82
2022/05/16 12:03:37;;;;;;;10.50;10.20;;;25.50;99.90;;;;;;5098779;28;20221;-82
2022/05/16 12:06:33;;;;;;;10.70;10.40;;;25.50;99.90;;;;;;5100976;28;20237;-82
2022/05/16 12:09:17;;;;;;;10.85;10.55;;;25.70;99.90;;;;;;5095294;28;20260;-82
2022/05/16 12:11:56;;;;;;;11.10;10.80;;;26.00;99.90;;;;;;5107098;28;20221;-82
2022/05/16 12:14:35;;;;;;;10.80;10.50;;;26.10;99.90;;;;;;5115204;28;20217;-82
2022/05/16 12:17:30;;;;;;;10.82;10.52;;;26.50;99.90;;;;;;5113493;28;20221;-82
2022/05/16 12:20:00;;;;;;;10.75;10.45;;;26.60;99.90;;;;;;5115480;28;20279;-82
2022/05/16 12:22:48;;;;;;;10.60;10.30;;;26.50;99.90;;;;;;5118499;27;20316;-82
2022/05/16 12:25:35;;;;;;;10.55;10.25;;;26.20;99.90;;;;;;5115913;28;20268;-82
2022/05/16 12:28:30;;;;;;;10.25;9.95;;;26.00;99.90;;;;;;5117480;28;20296;-82
2022/05/16 12:31:04;;;;;;;10.82;10.52;;;26.00;99.90;;;;;;5114256;28;20237;-82
2022/05/16 12:33:56;;;;;;;10.77;10.48;;;25.90;99.90;;;;;;5117550;28;20213;-83
2022/05/16 12:36:27;;;;;;;10.65;10.35;;;25.70;99.90;;;;;;5119872;28;20201;-83
2022/05/16 12:39:04;;;;;;;10.82;10.52;;;25.70;99.90;;;;;;5119708;28;20217;-81
2022/05/16 12:41:58;;;;;;;10.73;10.43;;;25.60;99.90;;;;;;5121587;27;20213;-82
2022/05/16 12:44:47;;;;;;;11.00;10.70;;;25.60;99.90;;;;;;5119967;27;20375;-82
2022/05/16 12:48:00;;;;;;;11.00;10.70;;;25.70;99.90;;;;;;5118054;28;20217;-83
2022/05/16 12:51:23;;;;;;;11.05;10.75;;;25.80;99.90;;;;;;5119465;28;20217;-82
2022/05/16 12:54:43;;;;;;;11.02;10.73;;;26.10;99.90;;;;;;5120147;28;20217;-82
2022/05/16 12:57:48;;;;;;;11.10;10.80;;;26.60;99.90;;;;;;5119790;27;20202;-82
2022/05/16 13:00:26;;;;;;;11.25;10.95;;;27.20;99.90;;;;;;5120480;28;20221;-82
2022/05/16 13:03:22;;;;;;;11.15;10.85;;;27.50;99.90;;;;;;5119452;28;20291;-81
2022/05/16 13:06:00;;;;;;;10.95;10.65;;;27.60;99.90;;;;;;5109293;28;20297;-82
2022/05/16 13:08:40;;;;;;;11.20;10.90;;;27.70;99.90;;;;;;5104781;28;20233;-81
2022/05/16 13:11:25;;;;;;;11.20;10.90;;;27.50;99.90;;;;;;5106692;28;20225;-82
2022/05/16 13:14:12;;;;;;;10.85;10.55;;;27.00;99.90;;;;;;5105307;28;20241;-83
2022/05/16 13:16:52;;;;;;;10.95;10.65;;;26.50;99.90;;;;;;5104151;28;20233;-82
2022/05/16 13:19:29;;;;;;;10.90;10.60;;;26.20;99.90;;;;;;5104615;28;20720;-82
2022/05/16 13:22:06;;;;;;;10.82;10.52;;;25.90;99.90;;;;;;5104233;28;20210;-83
2022/05/16 13:24:37;;;;;;;10.68;10.38;;;25.60;99.90;;;;;;5103593;28;20344;-83
2022/05/16 13:30:10;;;;;;;10.70;10.40;;;25.40;99.90;;;;;;5040758;28;20226;-82
2022/05/16 13:32:40;;;;;;;10.70;10.40;;;25.80;99.90;;;;;;5091138;28;20233;-81
2022/05/16 13:35:28;;;;;;;10.40;10.10;;;26.00;99.90;;;;;;5104850;28;20234;-83
2022/05/16 13:37:57;;;;;;;10.60;10.30;;;25.90;99.90;;;;;;5103908;28;20240;-82
2022/05/16 13:40:38;;;;;;;10.75;10.45;;;25.60;99.90;;;;;;5102609;28;20299;-80
2022/05/16 13:43:14;;;;;;;10.73;10.43;;;25.30;99.90;;;;;;5128754;22;20248;-81
2022/05/16 13:45:43;;;;;;;11.00;10.70;;;25.00;99.90;;;;;;5128336;27;20262;-80
2022/05/16 13:48:14;;;;;;;10.77;10.48;;;24.70;99.90;;;;;;5129262;27;20232;-81
2022/05/16 13:50:52;;;;;;;10.80;10.50;;;24.40;99.90;;;;;;5128850;28;20221;-80
2022/05/16 13:53:22;;;;;;;11.07;10.77;;;24.00;99.90;;;;;;5128968;27;20217;-80
2022/05/16 13:55:51;;;;;;;11.10;10.80;;;23.60;99.90;;;;;;5129551;28;20233;-80
2022/05/16 13:58:20;;;;;;;10.75;10.45;;;23.20;99.90;;;;;;5129570;28;20229;-81
2022/05/16 14:00:51;;;;;;;11.07;10.77;;;22.90;99.90;;;;;;5129861;27;20299;-81